Espanola, Canada
Current Conditions -  °F | °C
As of 6:00 AM on Friday 19 Dec 2014 (Local Time) from CYZE Reporting Station
Scattered Clouds Scattered Clouds  
Wind Chill:   Ceiling: Unl
Heat Index: 16°   Visibility: 9mi
Dew Point: 12°   Wind: 9mph
Humidity: 86%   Direction: 30°NNE
Pressure: 30.23"   Gusts: NA
Location:  46.25°N, 81.77°W
Report Text: CYZE 191100Z AUTO 03008KT 9SM SCT130 M09/M11 A3023 RMK ICG SLP249
Loading
Personal Weather Stations






























Interactive Weather Map New forecast layout! Learn more

10-Day Weather Forecast

Advertisements
Track Severe Weather on mobile